Terminal Aerodrome Forecast
Issued by NWS Detroit/Pontiac, MI

Home | Current Version | Previous Version | Text Only | Print | Product List | Glossary On
Versions: 1 2 3 4 5 6 7 8 9 10 11 12 13 14 15 16 17 18 19 20 21 22 23 24 25 26 27 28 29 30
000
FTUS43 KDTX 222104 AAA
TAFDTW
TAF AMD
KDTW 222104Z 2221/2324 09007KT P6SM SCT060 BKN100
     FM222200 09008KT P6SM BKN060 BKN100
     FM230000 10008KT P6SM BKN040
     FM230800 13009KT 3SM -RA BR OVC012
      TEMPO 2311/2314 2SM -RA BR OVC008
     FM231500 17009KT 4SM BR OVC010=

USA.gov is the U.S. government's official web portal to all federal, state and local government web resources and services.